Terminal Aerodrome Forecast
Issued by NWS

Home | Current Version | Previous Version | Text Only | Print | Product List | Glossary On
Versions: 1 2 3 4 5 6 7 8 9 10 11 12 13 14 15 16 17 18 19 20 21 22 23 24 25 26
877
FTAK31 PAFA 212340
TAFAFA
TAF
PAFA 212340Z 2200/2306 24003KT 1 1/2SM -SN BR BKN020 OVC035
     FM220600 VRB03KT 2SM -SN BR BKN015 OVC030
     FM221600 28004KT 4SM -SN BR SCT007 BKN020 OVC035
     FM222000 28003KT 6SM -SN BR BKN025 OVC040=

USA.gov is the U.S. government's official web portal to all federal, state and local government web resources and services.